Time;durP1;ratioP1;P1;durP2;ratioP2;P2;SDS_P1;SDS_P2;PMS_P1;PMS_P2;Temp;Humidity;BMP_temperature;BMP_pressure;BME280_temperature;BME280_humidity;BME280_pressure;Samples;Min_cycle;Max_cycle;Signal;HPM_P1;HPM_P2
2023/10/30 00:02:21;;;;;;;0.47;0.47;;;12.00;99.90;;;;;;5051990;28;20037;-77
2023/10/30 00:04:47;;;;;;;0.10;0.10;;;11.90;99.90;;;;;;5033868;28;20056;-76
2023/10/30 00:07:13;;;;;;;0.15;0.15;;;12.00;99.90;;;;;;5049839;28;20037;-76
2023/10/30 00:09:39;;;;;;;0.32;0.32;;;12.00;99.90;;;;;;5032318;28;20406;-77
2023/10/30 00:12:06;;;;;;;0.30;0.30;;;12.00;99.90;;;;;;5032810;28;20056;-75
2023/10/30 00:14:33;;;;;;;0.15;0.15;;;11.90;99.90;;;;;;5052815;28;20065;-76
2023/10/30 00:16:59;;;;;;;0.10;0.10;;;11.90;99.90;;;;;;5048061;28;20045;-75
2023/10/30 00:19:26;;;;;;;0.10;0.10;;;11.90;99.90;;;;;;5050781;28;20040;-76
2023/10/30 00:21:52;;;;;;;0.60;0.55;;;11.90;99.90;;;;;;5047892;28;20036;-74
2023/10/30 00:24:18;;;;;;;0.13;0.13;;;11.90;99.90;;;;;;5049617;28;20033;-75
2023/10/30 00:26:44;;;;;;;0.63;0.43;;;11.90;99.90;;;;;;5050399;28;20037;-77
2023/10/30 00:29:12;;;;;;;0.10;0.10;;;11.90;99.90;;;;;;5049905;28;20378;-76
2023/10/30 00:31:38;;;;;;;0.00;0.00;;;11.90;99.90;;;;;;5050498;28;20470;-76
2023/10/30 00:34:09;;;;;;;0.95;0.52;;;11.80;99.90;;;;;;5051462;28;20033;-76
2023/10/30 00:36:36;;;;;;;0.40;0.40;;;11.80;99.90;;;;;;5049763;28;20033;-78
2023/10/30 00:39:02;;;;;;;0.17;0.17;;;11.80;99.90;;;;;;5050360;28;20037;-77
2023/10/30 00:41:29;;;;;;;0.35;0.30;;;11.80;99.90;;;;;;5048676;28;20037;-77
2023/10/30 00:43:55;;;;;;;0.20;0.20;;;11.80;99.90;;;;;;5050331;28;20051;-77
2023/10/30 00:46:21;;;;;;;0.20;0.20;;;11.90;99.90;;;;;;5031511;28;20037;-77
2023/10/30 00:48:47;;;;;;;0.22;0.22;;;11.80;99.90;;;;;;5050256;28;20033;-79
2023/10/30 00:51:14;;;;;;;0.10;0.10;;;11.80;99.90;;;;;;5046512;28;20037;-77
2023/10/30 00:53:42;;;;;;;0.10;0.10;;;11.90;99.90;;;;;;5050174;28;20355;-77
2023/10/30 00:56:08;;;;;;;0.70;0.70;;;11.90;99.90;;;;;;5050886;28;20036;-77
2023/10/30 00:58:35;;;;;;;0.17;0.15;;;11.80;99.90;;;;;;5046929;28;20025;-77
2023/10/30 01:01:02;;;;;;;0.75;0.75;;;11.80;99.90;;;;;;5049519;28;20341;-75
2023/10/30 01:03:28;;;;;;;0.50;0.50;;;11.80;99.90;;;;;;5032037;28;20041;-76
2023/10/30 01:05:59;;;;;;;0.10;0.10;;;11.80;99.90;;;;;;5042044;28;20024;-76
2023/10/30 01:08:26;;;;;;;0.57;0.38;;;11.80;99.90;;;;;;5045889;28;20046;-76
2023/10/30 01:10:55;;;;;;;0.20;0.20;;;11.80;99.90;;;;;;5048677;28;20474;-75
2023/10/30 01:13:22;;;;;;;0.30;0.30;;;11.80;99.90;;;;;;5049385;28;20032;-75
2023/10/30 01:15:54;;;;;;;1.23;0.52;;;11.80;99.90;;;;;;5050162;28;20060;-76
2023/10/30 01:18:21;;;;;;;0.38;0.38;;;11.80;99.90;;;;;;5049122;28;20025;-76
2023/10/30 01:20:47;;;;;;;0.40;0.40;;;11.80;99.90;;;;;;5047640;28;20044;-76
2023/10/30 01:23:17;;;;;;;0.10;0.10;;;11.80;99.90;;;;;;5031019;28;20052;-75
2023/10/30 01:25:47;;;;;;;0.50;0.50;;;11.80;99.90;;;;;;5050670;28;20056;-75
2023/10/30 01:28:13;;;;;;;0.20;0.20;;;11.80;99.90;;;;;;5031728;28;20037;-77
2023/10/30 01:30:40;;;;;;;0.00;0.00;;;11.70;99.90;;;;;;5049405;28;20040;-76
2023/10/30 01:33:06;;;;;;;0.10;0.10;;;11.70;99.90;;;;;;5046913;28;20032;-76
2023/10/30 01:35:33;;;;;;;0.30;0.10;;;11.80;99.90;;;;;;5050383;28;20033;-76
2023/10/30 01:37:59;;;;;;;0.20;0.20;;;11.70;99.90;;;;;;5032105;28;20034;-79
2023/10/30 01:40:25;;;;;;;0.25;0.15;;;11.70;99.90;;;;;;5049204;28;20037;-77
2023/10/30 01:42:51;;;;;;;0.00;0.00;;;11.70;99.90;;;;;;5050206;28;20029;-77
2023/10/30 01:45:18;;;;;;;0.05;0.05;;;11.60;99.90;;;;;;5044729;28;20033;-76
2023/10/30 01:47:44;;;;;;;0.20;0.20;;;11.70;99.90;;;;;;5021996;28;20048;-76
2023/10/30 01:50:13;;;;;;;0.47;0.47;;;11.60;99.90;;;;;;5045968;28;20032;-77
2023/10/30 01:52:40;;;;;;;0.15;0.15;;;11.60;99.90;;;;;;5046527;28;20053;-76
2023/10/30 01:55:07;;;;;;;0.10;0.10;;;11.60;99.90;;;;;;5052289;28;20029;-77
2023/10/30 01:57:33;;;;;;;0.45;0.17;;;11.60;99.90;;;;;;5029480;28;20026;-77
2023/10/30 02:00:01;;;;;;;2.72;1.13;;;11.60;99.90;;;;;;5042140;28;20041;-77
2023/10/30 02:02:31;;;;;;;0.55;0.55;;;11.60;99.90;;;;;;5035466;28;20049;-79
2023/10/30 02:04:57;;;;;;;0.10;0.10;;;11.60;99.90;;;;;;5018581;28;20049;-77
2023/10/30 02:07:24;;;;;;;0.10;0.10;;;11.50;99.90;;;;;;5052843;28;20036;-78
2023/10/30 02:09:50;;;;;;;0.00;0.00;;;11.50;99.90;;;;;;5050426;28;20040;-77
2023/10/30 02:12:17;;;;;;;0.10;0.10;;;11.50;99.90;;;;;;5032256;28;20037;-78
2023/10/30 02:14:43;;;;;;;0.25;0.25;;;11.40;99.90;;;;;;5054397;28;20048;-76
2023/10/30 02:17:09;;;;;;;0.08;0.08;;;11.40;99.90;;;;;;5034447;28;20402;-78
2023/10/30 02:19:36;;;;;;;0.03;0.03;;;11.40;99.90;;;;;;5034645;28;20041;-78
2023/10/30 02:22:03;;;;;;;0.65;0.40;;;11.40;99.90;;;;;;5050995;28;20091;-79
2023/10/30 02:24:30;;;;;;;0.10;0.10;;;11.40;99.90;;;;;;5037829;28;20048;-77
2023/10/30 02:26:56;;;;;;;1.27;0.47;;;11.40;99.90;;;;;;5055146;28;20028;-77
2023/10/30 02:29:23;;;;;;;0.10;0.10;;;11.30;99.90;;;;;;5058191;28;20048;-77
2023/10/30 02:31:50;;;;;;;0.00;0.00;;;11.30;99.90;;;;;;5049222;28;20033;-77
2023/10/30 02:34:16;;;;;;;0.20;0.20;;;11.30;99.90;;;;;;5036976;28;20067;-76
2023/10/30 02:36:42;;;;;;;0.05;0.05;;;11.30;99.90;;;;;;5053177;28;20041;-77
2023/10/30 02:39:08;;;;;;;0.80;0.52;;;11.30;99.90;;;;;;5050495;28;20032;-76
2023/10/30 02:41:34;;;;;;;0.88;0.45;;;11.30;99.90;;;;;;5054556;28;20041;-76
2023/10/30 02:44:01;;;;;;;0.50;0.50;;;11.30;99.90;;;;;;5036885;28;20025;-77
2023/10/30 02:46:27;;;;;;;2.90;0.75;;;11.20;99.90;;;;;;5049687;28;20477;-77
2023/10/30 02:48:56;;;;;;;0.10;0.10;;;11.20;99.90;;;;;;5055023;28;20482;-77
2023/10/30 02:51:22;;;;;;;0.10;0.10;;;11.20;99.90;;;;;;5051263;28;20048;-78
2023/10/30 02:53:48;;;;;;;0.20;0.20;;;11.20;99.90;;;;;;5052898;28;20039;-77
2023/10/30 02:56:14;;;;;;;0.45;0.45;;;11.20;99.90;;;;;;5052084;28;20040;-76
2023/10/30 02:58:40;;;;;;;9.70;0.70;;;11.20;99.90;;;;;;5052524;28;20450;-77
2023/10/30 03:01:07;;;;;;;4.38;0.85;;;11.10;99.90;;;;;;5048077;28;20363;-76
2023/10/30 03:03:33;;;;;;;1.13;0.95;;;11.10;99.90;;;;;;5035014;28;20041;-76
2023/10/30 03:05:59;;;;;;;1.10;1.00;;;11.10;99.90;;;;;;5050895;28;20047;-77
2023/10/30 03:08:25;;;;;;;0.00;0.00;;;11.10;99.90;;;;;;5029590;28;20037;-80
2023/10/30 03:10:51;;;;;;;0.17;0.17;;;11.10;99.90;;;;;;5050895;28;20033;-77
2023/10/30 03:13:18;;;;;;;0.28;0.28;;;11.10;99.90;;;;;;5051895;28;20033;-78
2023/10/30 03:15:47;;;;;;;0.68;0.68;;;11.20;99.90;;;;;;5038324;28;20056;-79
2023/10/30 03:18:13;;;;;;;8.52;1.33;;;11.10;99.90;;;;;;5049602;28;20051;-79
2023/10/30 03:20:39;;;;;;;1.65;1.23;;;11.10;99.90;;;;;;5049503;28;20036;-78
2023/10/30 03:23:06;;;;;;;0.10;0.10;;;11.10;99.90;;;;;;5051609;28;20044;-77
2023/10/30 03:25:32;;;;;;;0.00;0.00;;;11.10;99.90;;;;;;5049110;28;20038;-77
2023/10/30 03:27:58;;;;;;;0.00;0.00;;;11.10;99.90;;;;;;5052090;28;20488;-77
2023/10/30 03:30:24;;;;;;;0.10;0.10;;;11.10;99.90;;;;;;5048598;28;20044;-77
2023/10/30 03:32:50;;;;;;;0.65;0.65;;;11.10;99.90;;;;;;5030944;28;20394;-77
2023/10/30 03:35:16;;;;;;;0.10;0.10;;;11.10;99.90;;;;;;5051501;28;20541;-77
2023/10/30 03:37:43;;;;;;;0.00;0.00;;;11.10;99.90;;;;;;5052233;28;20033;-77
2023/10/30 03:40:11;;;;;;;0.10;0.10;;;11.10;99.90;;;;;;5031799;28;20040;-78
2023/10/30 03:42:37;;;;;;;0.10;0.10;;;11.10;99.90;;;;;;5049226;28;20032;-77
2023/10/30 03:45:04;;;;;;;0.10;0.10;;;11.10;99.90;;;;;;5051702;28;20409;-77
2023/10/30 03:47:30;;;;;;;0.32;0.25;;;11.10;99.90;;;;;;5050740;28;20041;-77
2023/10/30 03:49:56;;;;;;;0.60;0.20;;;11.10;99.90;;;;;;5033267;28;20056;-78
2023/10/30 03:52:23;;;;;;;0.20;0.20;;;11.00;99.90;;;;;;5048226;28;20050;-78
2023/10/30 03:54:49;;;;;;;0.10;0.10;;;11.00;99.90;;;;;;5052730;28;20473;-78
2023/10/30 03:57:15;;;;;;;0.00;0.00;;;11.00;99.90;;;;;;5050540;28;20378;-77
2023/10/30 03:59:41;;;;;;;3.90;0.20;;;11.00;99.90;;;;;;5033816;28;20418;-76
2023/10/30 04:02:07;;;;;;;1.60;0.32;;;11.00;99.90;;;;;;5049756;28;20064;-75
2023/10/30 04:04:36;;;;;;;0.10;0.10;;;11.00;99.90;;;;;;5051073;28;20136;-75
2023/10/30 04:07:02;;;;;;;0.00;0.00;;;11.00;99.90;;;;;;5031182;28;20045;-75
2023/10/30 04:09:29;;;;;;;0.20;0.20;;;11.10;99.90;;;;;;5051527;28;20029;-76
2023/10/30 04:11:55;;;;;;;2.88;0.70;;;11.00;99.90;;;;;;5047389;28;20466;-76
2023/10/30 04:14:22;;;;;;;0.00;0.00;;;11.00;99.90;;;;;;5048418;28;20033;-77
2023/10/30 04:16:48;;;;;;;0.10;0.10;;;11.00;99.90;;;;;;5031859;28;20050;-76
2023/10/30 04:19:14;;;;;;;0.10;0.10;;;11.00;99.90;;;;;;5031496;28;20045;-76
2023/10/30 04:21:40;;;;;;;0.10;0.10;;;11.00;99.90;;;;;;5026624;28;20040;-76
2023/10/30 04:24:07;;;;;;;0.10;0.10;;;11.00;99.90;;;;;;5039746;28;20056;-77
2023/10/30 04:26:33;;;;;;;0.10;0.10;;;11.00;99.90;;;;;;5050343;28;20455;-76
2023/10/30 04:28:59;;;;;;;0.32;0.32;;;11.00;99.90;;;;;;5052706;28;20025;-76
2023/10/30 04:31:25;;;;;;;0.25;0.20;;;11.00;99.90;;;;;;5049039;28;20037;-76
2023/10/30 04:33:52;;;;;;;0.75;0.10;;;11.00;99.90;;;;;;5052605;28;20037;-77
2023/10/30 04:36:18;;;;;;;0.45;0.30;;;11.00;99.90;;;;;;5054701;28;20031;-77
2023/10/30 04:38:44;;;;;;;0.05;0.05;;;11.00;99.90;;;;;;5070806;28;20052;-77
2023/10/30 04:41:10;;;;;;;0.38;0.32;;;11.00;99.90;;;;;;5034660;28;20052;-76
2023/10/30 04:43:37;;;;;;;0.10;0.10;;;11.00;99.90;;;;;;5048987;28;20601;-77
2023/10/30 04:46:03;;;;;;;0.68;0.68;;;11.00;99.90;;;;;;5051906;28;20044;-76
2023/10/30 04:48:32;;;;;;;0.50;0.30;;;11.00;99.90;;;;;;5049115;28;20041;-76
2023/10/30 04:50:59;;;;;;;0.10;0.10;;;11.10;99.90;;;;;;5046840;28;20040;-76
2023/10/30 04:53:28;;;;;;;0.10;0.10;;;11.00;99.90;;;;;;5048733;28;20040;-78
2023/10/30 04:55:54;;;;;;;0.32;0.32;;;11.00;99.90;;;;;;5048598;28;20470;-78
2023/10/30 04:58:20;;;;;;;0.03;0.03;;;11.00;99.90;;;;;;5050835;28;20025;-77
2023/10/30 05:00:46;;;;;;;0.00;0.00;;;11.00;99.90;;;;;;5047875;28;20034;-77
2023/10/30 05:03:12;;;;;;;0.00;0.00;;;11.00;99.90;;;;;;5050515;28;20386;-78
2023/10/30 05:05:38;;;;;;;0.28;0.17;;;11.00;99.90;;;;;;5045998;28;20029;-76
2023/10/30 05:08:05;;;;;;;0.10;0.10;;;11.00;99.90;;;;;;5039925;28;20481;-77
2023/10/30 05:10:31;;;;;;;0.00;0.00;;;11.00;99.90;;;;;;5049178;28;20358;-77
2023/10/30 05:12:57;;;;;;;0.10;0.10;;;11.00;99.90;;;;;;5050319;28;20040;-77
2023/10/30 05:15:24;;;;;;;0.73;0.35;;;11.00;99.90;;;;;;5023238;28;20402;-77
2023/10/30 05:17:50;;;;;;;0.00;0.00;;;11.00;99.90;;;;;;5050474;28;20029;-77
2023/10/30 05:20:16;;;;;;;0.00;0.00;;;11.00;99.90;;;;;;5031625;28;20052;-77
2023/10/30 05:22:43;;;;;;;0.30;0.30;;;11.00;99.90;;;;;;5047461;28;20037;-77
2023/10/30 05:25:09;;;;;;;0.10;0.10;;;11.00;99.90;;;;;;5048446;28;20484;-76
2023/10/30 05:27:36;;;;;;;0.00;0.00;;;11.00;99.90;;;;;;5046883;28;20025;-76
2023/10/30 05:30:02;;;;;;;0.03;0.03;;;11.00;99.90;;;;;;5049218;28;20038;-76
2023/10/30 05:32:29;;;;;;;0.10;0.10;;;11.00;99.90;;;;;;5048019;28;20831;-77
2023/10/30 05:34:55;;;;;;;0.00;0.00;;;11.00;99.90;;;;;;5052212;28;20033;-76
2023/10/30 05:37:21;;;;;;;0.10;0.10;;;11.00;99.90;;;;;;5051795;28;20025;-77
2023/10/30 05:39:49;;;;;;;0.63;0.43;;;11.00;99.90;;;;;;5054011;28;20029;-78
2023/10/30 05:42:16;;;;;;;0.17;0.17;;;11.00;99.90;;;;;;5051717;28;20033;-77
2023/10/30 05:44:42;;;;;;;0.10;0.10;;;11.00;99.90;;;;;;5053213;28;20458;-77
2023/10/30 05:47:08;;;;;;;0.05;0.05;;;11.00;99.90;;;;;;5050420;28;20465;-77
2023/10/30 05:49:34;;;;;;;0.10;0.10;;;11.00;99.90;;;;;;5054585;28;20057;-77
2023/10/30 05:52:00;;;;;;;0.15;0.10;;;11.00;99.90;;;;;;5051872;28;20037;-77
2023/10/30 05:54:27;;;;;;;3.72;0.43;;;11.00;99.90;;;;;;5032622;28;20036;-77
2023/10/30 05:56:53;;;;;;;0.10;0.10;;;11.00;99.90;;;;;;5052119;28;20048;-77
2023/10/30 05:59:19;;;;;;;0.00;0.00;;;11.00;99.90;;;;;;5051657;28;20359;-78
2023/10/30 06:01:47;;;;;;;0.80;0.68;;;11.00;99.90;;;;;;5051538;28;20520;-77
2023/10/30 06:04:14;;;;;;;0.10;0.10;;;11.00;99.90;;;;;;5052323;28;20032;-77
2023/10/30 06:06:40;;;;;;;0.00;0.00;;;11.00;99.90;;;;;;5052373;28;20036;-77
2023/10/30 06:09:06;;;;;;;0.03;0.03;;;11.00;99.90;;;;;;5051781;28;20033;-76
2023/10/30 06:11:32;;;;;;;0.40;0.40;;;11.00;99.90;;;;;;5052713;28;20021;-76
2023/10/30 06:13:59;;;;;;;0.20;0.20;;;11.00;99.90;;;;;;5061931;28;20048;-78
2023/10/30 06:16:25;;;;;;;0.03;0.03;;;11.00;99.90;;;;;;5052725;28;20053;-77
2023/10/30 06:18:52;;;;;;;0.10;0.10;;;11.00;99.90;;;;;;5035887;28;20053;-76
2023/10/30 06:21:19;;;;;;;0.10;0.10;;;11.00;99.90;;;;;;5052504;28;20037;-77
2023/10/30 06:23:45;;;;;;;0.85;0.50;;;11.00;99.90;;;;;;5051393;28;20048;-76
2023/10/30 06:26:13;;;;;;;0.10;0.10;;;11.00;99.90;;;;;;5052482;28;20040;-78
2023/10/30 06:28:40;;;;;;;6.50;1.25;;;11.00;99.90;;;;;;5050636;28;20025;-77
2023/10/30 06:31:17;;;;;;;0.00;0.00;;;11.10;99.90;;;;;;5035803;28;20029;-77
2023/10/30 06:33:44;;;;;;;0.00;0.00;;;11.00;99.90;;;;;;5052945;28;20032;-77
2023/10/30 06:36:11;;;;;;;0.90;0.90;;;11.00;99.90;;;;;;5052172;28;20036;-75
2023/10/30 06:38:37;;;;;;;2.60;0.17;;;11.00;99.90;;;;;;5050734;28;20033;-76
2023/10/30 06:41:04;;;;;;;0.15;0.15;;;11.00;99.90;;;;;;5050553;28;20036;-76
2023/10/30 06:43:34;;;;;;;0.25;0.10;;;11.10;99.90;;;;;;5049689;28;20063;-77
2023/10/30 06:46:02;;;;;;;0.00;0.00;;;11.10;99.90;;;;;;5048271;28;20029;-76
2023/10/30 06:48:28;;;;;;;0.10;0.10;;;11.10;99.90;;;;;;5051202;28;20485;-76
2023/10/30 06:50:55;;;;;;;0.10;0.10;;;11.10;99.90;;;;;;5050281;28;20052;-76
2023/10/30 06:53:22;;;;;;;0.60;0.47;;;11.10;99.90;;;;;;5050596;28;20406;-76
2023/10/30 06:55:48;;;;;;;0.30;0.30;;;11.10;99.90;;;;;;5049845;28;20030;-76
2023/10/30 06:58:15;;;;;;;0.00;0.00;;;11.10;99.90;;;;;;5052058;28;20029;-77
2023/10/30 07:00:41;;;;;;;0.10;0.10;;;11.10;99.90;;;;;;5051038;28;20025;-76
2023/10/30 07:03:08;;;;;;;0.95;0.28;;;11.10;99.90;;;;;;5044143;28;20048;-77
2023/10/30 07:05:34;;;;;;;0.98;0.90;;;11.10;99.90;;;;;;5031775;28;20029;-75
2023/10/30 07:08:01;;;;;;;0.20;0.20;;;11.10;99.90;;;;;;5052471;28;20036;-76
2023/10/30 07:10:27;;;;;;;0.30;0.30;;;11.20;99.90;;;;;;5053265;28;20041;-76
2023/10/30 07:12:53;;;;;;;0.10;0.10;;;11.20;99.90;;;;;;5053953;28;20343;-76
2023/10/30 07:15:20;;;;;;;0.20;0.20;;;11.20;99.90;;;;;;5054515;28;20466;-76
2023/10/30 07:17:47;;;;;;;0.10;0.10;;;11.20;99.90;;;;;;5064145;28;20041;-76
2023/10/30 07:20:15;;;;;;;0.10;0.10;;;11.20;99.90;;;;;;5059073;28;20037;-76
2023/10/30 07:22:41;;;;;;;0.08;0.08;;;11.20;99.90;;;;;;5052574;28;20398;-75
2023/10/30 07:25:07;;;;;;;0.10;0.10;;;11.30;99.90;;;;;;5049051;28;20513;-75
2023/10/30 07:27:33;;;;;;;0.10;0.10;;;11.30;99.90;;;;;;5048670;28;20577;-76
2023/10/30 07:30:01;;;;;;;0.10;0.10;;;11.30;99.90;;;;;;5032247;28;20289;-75
2023/10/30 07:32:28;;;;;;;0.00;0.00;;;11.40;99.90;;;;;;5051828;28;20390;-77
2023/10/30 07:34:54;;;;;;;0.10;0.10;;;11.40;99.90;;;;;;5050421;28;20036;-75
2023/10/30 07:37:21;;;;;;;0.20;0.20;;;11.40;99.90;;;;;;5049789;28;20033;-75
2023/10/30 07:39:47;;;;;;;0.13;0.13;;;11.40;99.90;;;;;;5051022;28;20393;-75
2023/10/30 07:42:14;;;;;;;0.75;0.57;;;11.30;99.90;;;;;;5051295;28;20398;-75
2023/10/30 07:44:40;;;;;;;0.00;0.00;;;11.40;99.90;;;;;;5049440;28;20025;-74
2023/10/30 07:47:06;;;;;;;0.40;0.40;;;11.40;99.90;;;;;;5050830;28;20425;-75
2023/10/30 07:49:32;;;;;;;0.17;0.13;;;11.40;99.90;;;;;;5049271;28;20040;-75
2023/10/30 07:52:00;;;;;;;0.30;0.28;;;11.50;99.90;;;;;;5032545;28;20041;-75
2023/10/30 07:54:26;;;;;;;0.10;0.10;;;11.50;99.90;;;;;;5057233;28;20033;-75
2023/10/30 07:56:52;;;;;;;0.00;0.00;;;11.50;99.90;;;;;;5034166;28;20040;-75
2023/10/30 07:59:20;;;;;;;0.20;0.20;;;11.50;99.90;;;;;;5048075;28;20034;-75
2023/10/30 08:01:47;;;;;;;0.10;0.10;;;11.50;99.90;;;;;;5049945;28;20052;-75
2023/10/30 08:04:13;;;;;;;0.10;0.10;;;11.50;99.90;;;;;;5051335;28;20032;-75
2023/10/30 08:06:39;;;;;;;0.40;0.20;;;11.60;99.90;;;;;;5050391;28;20037;-75
2023/10/30 08:09:05;;;;;;;1.17;0.88;;;11.50;99.90;;;;;;5051588;28;20040;-75
2023/10/30 08:11:32;;;;;;;0.68;0.68;;;11.50;99.90;;;;;;5049285;28;20037;-75
2023/10/30 08:13:58;;;;;;;0.35;0.35;;;11.60;99.90;;;;;;5047469;28;20389;-75
2023/10/30 08:16:25;;;;;;;6.13;0.75;;;11.60;99.90;;;;;;5050442;28;20041;-75
2023/10/30 08:18:51;;;;;;;0.20;0.15;;;11.60;99.90;;;;;;5050523;28;20068;-75
2023/10/30 08:21:17;;;;;;;0.38;0.38;;;11.60;99.90;;;;;;5048532;28;20044;-75
2023/10/30 08:23:43;;;;;;;0.00;0.00;;;11.70;99.90;;;;;;5048760;28;20044;-75
2023/10/30 08:26:10;;;;;;;0.30;0.30;;;11.70;99.90;;;;;;5048894;28;20044;-75
2023/10/30 08:28:36;;;;;;;0.52;0.45;;;11.70;99.90;;;;;;5049900;28;20037;-75
2023/10/30 08:31:04;;;;;;;0.22;0.22;;;11.70;99.90;;;;;;5033159;28;20088;-75
2023/10/30 08:33:30;;;;;;;0.30;0.30;;;11.80;99.90;;;;;;5048057;28;20040;-74
2023/10/30 08:35:56;;;;;;;0.30;0.20;;;11.80;99.90;;;;;;5050642;28;20035;-76
2023/10/30 08:38:24;;;;;;;0.32;0.25;;;11.80;99.90;;;;;;5028437;28;20025;-76
2023/10/30 08:40:50;;;;;;;0.17;0.17;;;11.90;99.90;;;;;;5051761;28;20029;-76
2023/10/30 08:43:16;;;;;;;1.95;0.85;;;12.10;99.90;;;;;;5050554;28;20458;-76
2023/10/30 08:45:43;;;;;;;0.75;0.68;;;12.20;99.90;;;;;;5049838;28;20044;-76
2023/10/30 08:48:12;;;;;;;2.13;0.85;;;12.40;99.90;;;;;;5048306;28;20056;-75
2023/10/30 08:50:40;;;;;;;1.35;0.47;;;12.60;99.90;;;;;;5026281;28;20037;-76
2023/10/30 08:53:07;;;;;;;0.75;0.75;;;12.70;99.90;;;;;;5047514;28;20033;-75
2023/10/30 08:55:33;;;;;;;21.15;0.80;;;12.60;99.90;;;;;;5046121;28;20032;-76
2023/10/30 08:57:59;;;;;;;2.20;0.55;;;12.70;99.90;;;;;;5050888;28;20497;-76
2023/10/30 09:00:26;;;;;;;0.32;0.25;;;12.80;99.90;;;;;;5047304;28;20037;-75
2023/10/30 09:02:52;;;;;;;0.13;0.13;;;12.80;99.90;;;;;;5050259;28;20045;-75
2023/10/30 09:05:19;;;;;;;0.32;0.10;;;12.80;99.90;;;;;;5047199;28;20037;-75
2023/10/30 09:07:46;;;;;;;9.05;2.60;;;12.80;99.90;;;;;;5049748;28;20033;-75
2023/10/30 09:10:12;;;;;;;0.90;0.75;;;12.90;99.90;;;;;;5046779;28;20021;-75
2023/10/30 09:12:38;;;;;;;0.10;0.10;;;13.10;99.90;;;;;;5048616;28;20048;-75
2023/10/30 09:15:07;;;;;;;1.27;0.30;;;13.20;99.90;;;;;;5047653;28;20961;-75
2023/10/30 09:17:34;;;;;;;1.58;0.77;;;13.20;99.90;;;;;;5030960;28;20402;-75
2023/10/30 09:20:00;;;;;;;0.13;0.10;;;13.30;99.90;;;;;;5050519;28;20029;-76
2023/10/30 09:22:26;;;;;;;0.38;0.30;;;13.30;99.90;;;;;;5048573;28;20461;-76
2023/10/30 09:24:52;;;;;;;0.00;0.00;;;13.40;99.90;;;;;;5049652;28;20040;-75
2023/10/30 09:27:18;;;;;;;0.10;0.10;;;13.40;99.90;;;;;;5050111;28;20056;-76
2023/10/30 09:29:45;;;;;;;0.20;0.20;;;13.50;99.90;;;;;;5048352;28;20029;-75
2023/10/30 09:32:11;;;;;;;0.32;0.22;;;13.50;99.90;;;;;;5049245;28;20032;-75
2023/10/30 09:34:38;;;;;;;0.10;0.10;;;13.50;99.90;;;;;;5046436;28;20029;-75
2023/10/30 09:37:04;;;;;;;0.00;0.00;;;13.60;99.90;;;;;;5049309;28;20037;-75
2023/10/30 09:39:31;;;;;;;0.13;0.13;;;13.60;99.90;;;;;;5051247;28;20044;-76
2023/10/30 09:42:00;;;;;;;0.73;0.57;;;13.70;99.90;;;;;;5050595;28;20029;-76
2023/10/30 09:44:27;;;;;;;0.20;0.20;;;13.70;99.90;;;;;;5047080;28;20033;-76
2023/10/30 09:46:54;;;;;;;0.30;0.20;;;13.80;99.90;;;;;;5048438;28;20045;-76
2023/10/30 09:49:22;;;;;;;0.43;0.35;;;13.70;99.90;;;;;;5050438;28;20029;-77
2023/10/30 09:51:49;;;;;;;0.10;0.10;;;13.80;99.90;;;;;;5069457;28;20021;-76
2023/10/30 09:54:17;;;;;;;0.00;0.00;;;13.70;99.90;;;;;;5068546;28;20045;-76
2023/10/30 09:56:44;;;;;;;0.00;0.00;;;13.70;99.90;;;;;;5059414;28;20029;-76
2023/10/30 09:59:16;;;;;;;0.47;0.47;;;13.70;99.90;;;;;;5049280;28;20041;-74
2023/10/30 10:01:42;;;;;;;0.10;0.10;;;13.80;99.90;;;;;;5049286;28;20324;-75
2023/10/30 10:04:08;;;;;;;1.75;0.63;;;13.80;99.90;;;;;;5047955;28;20045;-75
2023/10/30 10:06:35;;;;;;;0.88;0.60;;;13.80;99.90;;;;;;5049305;28;20030;-75
2023/10/30 10:09:04;;;;;;;0.35;0.35;;;13.80;99.90;;;;;;5050684;28;20044;-75
2023/10/30 10:11:34;;;;;;;0.10;0.10;;;13.80;99.90;;;;;;5029290;28;20032;-75
2023/10/30 10:14:01;;;;;;;;;;;13.70;99.90;;;;;;5048976;28;20224;-75
2023/10/30 10:16:31;;;;;;;0.43;0.43;;;13.70;99.90;;;;;;5048260;28;19925;-75
2023/10/30 10:18:57;;;;;;;0.32;0.32;;;13.70;99.90;;;;;;5048605;28;20040;-74
2023/10/30 10:21:24;;;;;;;0.20;0.20;;;13.70;99.90;;;;;;5037662;28;20039;-75
2023/10/30 10:23:50;;;;;;;1.00;0.35;;;13.80;99.90;;;;;;5030844;28;20060;-75
2023/10/30 10:26:16;;;;;;;0.70;0.43;;;13.70;99.90;;;;;;5053060;28;20484;-74
2023/10/30 10:28:46;;;;;;;1.17;0.77;;;13.70;99.90;;;;;;5049506;28;20032;-75
2023/10/30 10:31:14;;;;;;;5.05;1.00;;;13.70;99.90;;;;;;5033011;28;20033;-75
2023/10/30 10:33:40;;;;;;;0.50;0.40;;;13.70;99.90;;;;;;5048336;28;20060;-75
2023/10/30 10:36:07;;;;;;;0.10;0.10;;;13.70;99.90;;;;;;5052098;28;20032;-75
2023/10/30 10:38:33;;;;;;;0.15;0.15;;;13.60;99.90;;;;;;5051762;28;20025;-74
2023/10/30 10:41:00;;;;;;;0.08;0.08;;;13.70;99.90;;;;;;5035416;28;20029;-75
2023/10/30 10:43:28;;;;;;;0.20;0.20;;;13.60;99.90;;;;;;5052104;28;20466;-74
2023/10/30 10:45:56;;;;;;;0.65;0.65;;;13.70;99.90;;;;;;5049701;28;20037;-75
2023/10/30 10:48:27;;;;;;;0.17;0.17;;;13.80;99.90;;;;;;5053575;28;20025;-76
2023/10/30 10:50:57;;;;;;;0.32;0.20;;;13.80;99.90;;;;;;5053036;28;20041;-75
2023/10/30 10:53:27;;;;;;;0.23;0.23;;;13.90;99.90;;;;;;5049493;28;20052;-77
2023/10/30 10:55:59;;;;;;;0.10;0.10;;;14.00;99.90;;;;;;5048280;28;20044;-75
2023/10/30 10:58:40;;;;;;;0.10;0.10;;;14.10;99.90;;;;;;5052044;28;20370;-76
2023/10/30 11:01:08;;;;;;;0.30;0.13;;;14.10;99.90;;;;;;5033876;28;20041;-75
2023/10/30 11:03:36;;;;;;;0.22;0.10;;;14.20;99.90;;;;;;5051456;28;20299;-75
2023/10/30 11:06:06;;;;;;;0.40;0.40;;;14.30;99.90;;;;;;5032589;28;20051;-77
2023/10/30 11:08:42;;;;;;;0.52;0.43;;;14.40;99.90;;;;;;5034133;28;20037;-76
2023/10/30 11:11:32;;;;;;;0.20;0.13;;;14.50;99.90;;;;;;5047516;28;20087;-76
2023/10/30 11:14:08;;;;;;;11.43;2.13;;;14.40;92.00;;;;;;5033606;28;20049;-75
2023/10/30 11:16:59;;;;;;;0.35;0.35;;;14.40;32.90;;;;;;5048680;28;20482;-75
2023/10/30 11:19:28;;;;;;;0.00;0.00;;;14.40;58.40;;;;;;5036956;28;20041;-77
2023/10/30 11:21:55;;;;;;;0.32;0.20;;;14.50;96.00;;;;;;5048556;28;20041;-75
2023/10/30 11:24:41;;;;;;;0.00;0.00;;;14.50;35.30;;;;;;5051450;28;20036;-75
2023/10/30 11:27:26;;;;;;;0.38;0.30;;;14.50;1.00;;;;;;5053037;28;20036;-75
2023/10/30 11:30:06;;;;;;;0.00;0.00;;;14.50;1.00;;;;;;5049618;28;20029;-77
2023/10/30 11:32:45;;;;;;;0.10;0.10;;;14.60;9.90;;;;;;5049757;28;20037;-76
2023/10/30 11:35:11;;;;;;;0.00;0.00;;;14.60;1.00;;;;;;5047870;28;20033;-76
2023/10/30 11:37:40;;;;;;;0.10;0.10;;;14.60;1.00;;;;;;5048903;28;20033;-77
2023/10/30 11:40:07;;;;;;;0.35;0.17;;;14.60;1.00;;;;;;5051731;28;20533;-76
2023/10/30 11:42:39;;;;;;;0.10;0.10;;;14.60;1.00;;;;;;5049471;28;20059;-76
2023/10/30 11:45:16;;;;;;;0.20;0.20;;;14.60;1.00;;;;;;5051402;28;20041;-76
2023/10/30 11:47:46;;;;;;;0.10;0.10;;;14.60;1.00;;;;;;5049580;28;20033;-77
2023/10/30 11:50:12;;;;;;;0.32;0.32;;;14.70;1.00;;;;;;5034928;28;20367;-76
2023/10/30 11:52:38;;;;;;;1.40;0.70;;;14.70;1.00;;;;;;5048791;28;20040;-77
2023/10/30 11:55:05;;;;;;;0.52;0.52;;;14.70;1.00;;;;;;5049859;28;20032;-76
2023/10/30 11:57:33;;;;;;;0.10;0.10;;;14.80;1.00;;;;;;5049656;28;20029;-77
2023/10/30 12:00:00;;;;;;;0.10;0.10;;;14.70;1.00;;;;;;5032173;28;20033;-78
2023/10/30 12:02:27;;;;;;;0.00;0.00;;;14.80;1.00;;;;;;5049288;28;20044;-79
2023/10/30 12:04:53;;;;;;;0.30;0.20;;;14.80;1.00;;;;;;5047712;28;20448;-77
2023/10/30 12:07:19;;;;;;;0.30;0.30;;;14.80;1.00;;;;;;5051109;28;20092;-77
2023/10/30 12:09:45;;;;;;;0.63;0.30;;;14.80;1.00;;;;;;5047814;28;20040;-77
2023/10/30 12:12:12;;;;;;;0.22;0.22;;;14.80;1.00;;;;;;5050364;28;20037;-77
2023/10/30 12:14:38;;;;;;;0.10;0.10;;;14.90;1.00;;;;;;5048875;28;20049;-76
2023/10/30 12:17:04;;;;;;;0.65;0.60;;;14.80;1.00;;;;;;5050417;28;20128;-73
2023/10/30 12:19:30;;;;;;;0.38;0.30;;;14.90;1.00;;;;;;5049792;28;20036;-77
2023/10/30 12:21:57;;;;;;;0.17;0.10;;;14.80;1.00;;;;;;5049355;28;20033;-76
2023/10/30 12:24:26;;;;;;;0.00;0.00;;;14.80;1.00;;;;;;5030709;28;20045;-76
2023/10/30 12:26:53;;;;;;;0.30;0.20;;;14.80;1.00;;;;;;5051989;28;20056;-76
2023/10/30 12:29:23;;;;;;;0.35;0.35;;;14.80;1.00;;;;;;5049216;28;20044;-76
2023/10/30 12:32:02;;;;;;;1.43;0.27;;;14.80;1.00;;;;;;5059463;28;20025;-77
2023/10/30 12:34:30;;;;;;;0.10;0.10;;;15.00;1.00;;;;;;5059471;28;20055;-77
2023/10/30 12:36:56;;;;;;;0.20;0.15;;;14.90;1.00;;;;;;5051238;28;20024;-76
2023/10/30 12:39:25;;;;;;;0.10;0.10;;;15.00;1.00;;;;;;5050047;28;20037;-77
2023/10/30 12:41:57;;;;;;;0.32;0.32;;;14.90;1.00;;;;;;5052367;28;20029;-77
2023/10/30 12:44:24;;;;;;;4.30;0.65;;;15.00;1.00;;;;;;5046800;28;20379;-76
2023/10/30 12:46:50;;;;;;;0.00;0.00;;;15.00;1.00;;;;;;5046715;28;20044;-74
2023/10/30 12:49:17;;;;;;;0.13;0.13;;;15.10;1.00;;;;;;5050209;28;20048;-75